sensor_id;sensor_type;location;lat;lon;timestamp;P1;durP1;ratioP1;P2;durP2;ratioP2
53545;SDS011;39432;51.902;10.844;2022-12-08T00:02:02;4.88;;;2.05;;
53545;SDS011;39432;51.902;10.844;2022-12-08T00:04:35;2.83;;;1.45;;
53545;SDS011;39432;51.902;10.844;2022-12-08T00:07:25;4.05;;;1.88;;
53545;SDS011;39432;51.902;10.844;2022-12-08T00:10:08;3.60;;;1.80;;
53545;SDS011;39432;51.902;10.844;2022-12-08T00:12:58;5.55;;;2.40;;
53545;SDS011;39432;51.902;10.844;2022-12-08T00:15:27;4.30;;;2.38;;
53545;SDS011;39432;51.902;10.844;2022-12-08T00:17:57;3.25;;;1.75;;
53545;SDS011;39432;51.902;10.844;2022-12-08T00:20:30;4.57;;;1.70;;
53545;SDS011;39432;51.902;10.844;2022-12-08T00:22:59;5.18;;;2.08;;
53545;SDS011;39432;51.902;10.844;2022-12-08T00:25:30;4.00;;;2.58;;
53545;SDS011;39432;51.902;10.844;2022-12-08T00:28:00;4.53;;;2.25;;
53545;SDS011;39432;51.902;10.844;2022-12-08T00:30:29;3.97;;;2.17;;
53545;SDS011;39432;51.902;10.844;2022-12-08T00:32:59;4.28;;;2.40;;
53545;SDS011;39432;51.902;10.844;2022-12-08T00:35:31;3.50;;;1.95;;
53545;SDS011;39432;51.902;10.844;2022-12-08T00:38:08;4.97;;;2.30;;
53545;SDS011;39432;51.902;10.844;2022-12-08T00:40:42;5.80;;;3.25;;
53545;SDS011;39432;51.902;10.844;2022-12-08T00:43:12;4.53;;;2.90;;
53545;SDS011;39432;51.902;10.844;2022-12-08T00:45:42;6.78;;;4.18;;
53545;SDS011;39432;51.902;10.844;2022-12-08T00:48:12;7.78;;;4.70;;
53545;SDS011;39432;51.902;10.844;2022-12-08T00:50:44;7.25;;;4.60;;
53545;SDS011;39432;51.902;10.844;2022-12-08T00:53:14;7.88;;;4.28;;
53545;SDS011;39432;51.902;10.844;2022-12-08T00:55:44;10.60;;;4.60;;
53545;SDS011;39432;51.902;10.844;2022-12-08T00:58:14;5.75;;;4.43;;
53545;SDS011;39432;51.902;10.844;2022-12-08T01:00:44;5.72;;;4.10;;
53545;SDS011;39432;51.902;10.844;2022-12-08T01:03:14;10.82;;;4.78;;
53545;SDS011;39432;51.902;10.844;2022-12-08T01:05:46;5.90;;;4.28;;
53545;SDS011;39432;51.902;10.844;2022-12-08T01:08:16;9.25;;;4.60;;
53545;SDS011;39432;51.902;10.844;2022-12-08T01:10:45;9.57;;;4.75;;
53545;SDS011;39432;51.902;10.844;2022-12-08T01:13:15;8.85;;;4.80;;
53545;SDS011;39432;51.902;10.844;2022-12-08T01:15:45;6.03;;;4.50;;
53545;SDS011;39432;51.902;10.844;2022-12-08T01:18:14;7.63;;;4.60;;
53545;SDS011;39432;51.902;10.844;2022-12-08T01:20:47;7.85;;;4.13;;
53545;SDS011;39432;51.902;10.844;2022-12-08T01:23:18;8.25;;;4.50;;
53545;SDS011;39432;51.902;10.844;2022-12-08T01:25:48;6.78;;;4.10;;
53545;SDS011;39432;51.902;10.844;2022-12-08T01:28:18;5.70;;;3.60;;
53545;SDS011;39432;51.902;10.844;2022-12-08T01:30:48;6.05;;;3.67;;
53545;SDS011;39432;51.902;10.844;2022-12-08T01:33:18;6.80;;;4.30;;
53545;SDS011;39432;51.902;10.844;2022-12-08T01:35:50;7.75;;;4.20;;
53545;SDS011;39432;51.902;10.844;2022-12-08T01:38:21;8.05;;;4.43;;
53545;SDS011;39432;51.902;10.844;2022-12-08T01:40:51;8.32;;;3.85;;
53545;SDS011;39432;51.902;10.844;2022-12-08T01:43:21;8.93;;;3.85;;
53545;SDS011;39432;51.902;10.844;2022-12-08T01:45:50;8.90;;;4.07;;
53545;SDS011;39432;51.902;10.844;2022-12-08T01:48:21;8.25;;;4.00;;
53545;SDS011;39432;51.902;10.844;2022-12-08T01:50:57;6.40;;;4.32;;
53545;SDS011;39432;51.902;10.844;2022-12-08T01:53:28;11.20;;;4.25;;
53545;SDS011;39432;51.902;10.844;2022-12-08T01:56:01;9.43;;;4.25;;
53545;SDS011;39432;51.902;10.844;2022-12-08T01:58:38;8.95;;;3.63;;
53545;SDS011;39432;51.902;10.844;2022-12-08T02:01:11;7.72;;;4.18;;
53545;SDS011;39432;51.902;10.844;2022-12-08T02:03:42;8.30;;;3.85;;
53545;SDS011;39432;51.902;10.844;2022-12-08T02:06:17;7.70;;;3.95;;
53545;SDS011;39432;51.902;10.844;2022-12-08T02:08:48;5.30;;;3.10;;
53545;SDS011;39432;51.902;10.844;2022-12-08T02:11:20;5.95;;;2.70;;
53545;SDS011;39432;51.902;10.844;2022-12-08T02:13:50;7.60;;;3.50;;
53545;SDS011;39432;51.902;10.844;2022-12-08T02:16:27;5.97;;;3.00;;
53545;SDS011;39432;51.902;10.844;2022-12-08T02:19:21;6.53;;;2.80;;
53545;SDS011;39432;51.902;10.844;2022-12-08T02:22:09;5.00;;;2.80;;
53545;SDS011;39432;51.902;10.844;2022-12-08T02:24:43;5.32;;;3.17;;
53545;SDS011;39432;51.902;10.844;2022-12-08T02:30:14;5.60;;;3.22;;
53545;SDS011;39432;51.902;10.844;2022-12-08T02:35:58;7.18;;;3.28;;
53545;SDS011;39432;51.902;10.844;2022-12-08T02:38:37;6.40;;;3.05;;
53545;SDS011;39432;51.902;10.844;2022-12-08T02:41:17;5.88;;;2.90;;
53545;SDS011;39432;51.902;10.844;2022-12-08T02:43:54;5.70;;;3.53;;
53545;SDS011;39432;51.902;10.844;2022-12-08T02:46:31;6.50;;;3.47;;
53545;SDS011;39432;51.902;10.844;2022-12-08T02:49:04;6.47;;;3.40;;
53545;SDS011;39432;51.902;10.844;2022-12-08T02:51:37;5.90;;;3.75;;
53545;SDS011;39432;51.902;10.844;2022-12-08T02:54:07;7.63;;;3.97;;
53545;SDS011;39432;51.902;10.844;2022-12-08T02:56:42;5.45;;;3.45;;
53545;SDS011;39432;51.902;10.844;2022-12-08T02:59:32;9.93;;;3.67;;
53545;SDS011;39432;51.902;10.844;2022-12-08T03:02:17;7.05;;;3.78;;
53545;SDS011;39432;51.902;10.844;2022-12-08T03:05:11;5.65;;;3.25;;
53545;SDS011;39432;51.902;10.844;2022-12-08T03:07:52;6.20;;;3.30;;
53545;SDS011;39432;51.902;10.844;2022-12-08T03:10:30;6.38;;;3.75;;
53545;SDS011;39432;51.902;10.844;2022-12-08T03:13:04;5.63;;;2.67;;
53545;SDS011;39432;51.902;10.844;2022-12-08T03:15:38;6.95;;;3.55;;
53545;SDS011;39432;51.902;10.844;2022-12-08T03:18:10;6.80;;;3.88;;
53545;SDS011;39432;51.902;10.844;2022-12-08T03:20:44;8.18;;;3.65;;
53545;SDS011;39432;51.902;10.844;2022-12-08T03:23:18;6.53;;;3.67;;
53545;SDS011;39432;51.902;10.844;2022-12-08T03:25:50;6.45;;;3.47;;
53545;SDS011;39432;51.902;10.844;2022-12-08T03:28:30;5.93;;;3.38;;
53545;SDS011;39432;51.902;10.844;2022-12-08T03:31:01;7.72;;;3.63;;
53545;SDS011;39432;51.902;10.844;2022-12-08T03:33:34;6.35;;;3.42;;
53545;SDS011;39432;51.902;10.844;2022-12-08T03:36:07;7.50;;;3.75;;
53545;SDS011;39432;51.902;10.844;2022-12-08T03:38:42;7.60;;;3.83;;
53545;SDS011;39432;51.902;10.844;2022-12-08T03:41:14;8.68;;;3.67;;
53545;SDS011;39432;51.902;10.844;2022-12-08T03:43:47;11.75;;;3.70;;
53545;SDS011;39432;51.902;10.844;2022-12-08T03:46:18;7.15;;;3.70;;
53545;SDS011;39432;51.902;10.844;2022-12-08T03:48:48;8.77;;;3.75;;
53545;SDS011;39432;51.902;10.844;2022-12-08T03:51:18;5.65;;;3.72;;
53545;SDS011;39432;51.902;10.844;2022-12-08T03:53:51;8.10;;;3.15;;
53545;SDS011;39432;51.902;10.844;2022-12-08T03:56:22;7.88;;;3.33;;
53545;SDS011;39432;51.902;10.844;2022-12-08T03:58:54;5.40;;;3.42;;
53545;SDS011;39432;51.902;10.844;2022-12-08T04:01:24;9.43;;;3.95;;
53545;SDS011;39432;51.902;10.844;2022-12-08T04:03:54;7.47;;;3.20;;
53545;SDS011;39432;51.902;10.844;2022-12-08T04:06:24;5.90;;;3.00;;
53545;SDS011;39432;51.902;10.844;2022-12-08T04:08:57;7.03;;;2.78;;
53545;SDS011;39432;51.902;10.844;2022-12-08T04:11:26;4.05;;;2.90;;
53545;SDS011;39432;51.902;10.844;2022-12-08T04:13:56;7.68;;;2.65;;
53545;SDS011;39432;51.902;10.844;2022-12-08T04:16:26;5.78;;;2.85;;
53545;SDS011;39432;51.902;10.844;2022-12-08T04:18:55;5.30;;;3.20;;
53545;SDS011;39432;51.902;10.844;2022-12-08T04:21:25;7.20;;;3.33;;
53545;SDS011;39432;51.902;10.844;2022-12-08T04:23:58;4.95;;;2.83;;
53545;SDS011;39432;51.902;10.844;2022-12-08T04:26:28;6.63;;;2.95;;
53545;SDS011;39432;51.902;10.844;2022-12-08T04:28:58;4.90;;;2.42;;
53545;SDS011;39432;51.902;10.844;2022-12-08T04:31:28;6.30;;;2.97;;
53545;SDS011;39432;51.902;10.844;2022-12-08T04:33:57;8.57;;;3.10;;
53545;SDS011;39432;51.902;10.844;2022-12-08T04:36:27;6.80;;;3.10;;
53545;SDS011;39432;51.902;10.844;2022-12-08T04:38:59;7.10;;;3.15;;
53545;SDS011;39432;51.902;10.844;2022-12-08T04:41:29;6.22;;;3.28;;
53545;SDS011;39432;51.902;10.844;2022-12-08T04:43:59;7.97;;;3.53;;
53545;SDS011;39432;51.902;10.844;2022-12-08T04:46:29;6.07;;;3.78;;
53545;SDS011;39432;51.902;10.844;2022-12-08T04:48:58;7.68;;;3.55;;
53545;SDS011;39432;51.902;10.844;2022-12-08T04:51:28;5.95;;;3.42;;
53545;SDS011;39432;51.902;10.844;2022-12-08T04:54:00;7.93;;;3.50;;
53545;SDS011;39432;51.902;10.844;2022-12-08T04:56:30;7.15;;;4.13;;
53545;SDS011;39432;51.902;10.844;2022-12-08T04:59:00;6.63;;;3.53;;
53545;SDS011;39432;51.902;10.844;2022-12-08T05:01:30;7.43;;;3.55;;
53545;SDS011;39432;51.902;10.844;2022-12-08T05:03:59;9.18;;;3.72;;
53545;SDS011;39432;51.902;10.844;2022-12-08T05:06:29;6.40;;;3.47;;
53545;SDS011;39432;51.902;10.844;2022-12-08T05:09:01;11.07;;;3.70;;
53545;SDS011;39432;51.902;10.844;2022-12-08T05:11:31;8.10;;;4.10;;
53545;SDS011;39432;51.902;10.844;2022-12-08T05:14:01;9.38;;;3.75;;
53545;SDS011;39432;51.902;10.844;2022-12-08T05:16:31;8.20;;;3.97;;
53545;SDS011;39432;51.902;10.844;2022-12-08T05:19:00;6.82;;;3.75;;
53545;SDS011;39432;51.902;10.844;2022-12-08T05:21:30;9.70;;;3.90;;
53545;SDS011;39432;51.902;10.844;2022-12-08T05:24:03;6.63;;;3.53;;
53545;SDS011;39432;51.902;10.844;2022-12-08T05:26:33;5.68;;;4.18;;
53545;SDS011;39432;51.902;10.844;2022-12-08T05:29:02;7.47;;;4.20;;
53545;SDS011;39432;51.902;10.844;2022-12-08T05:31:32;7.30;;;4.18;;
53545;SDS011;39432;51.902;10.844;2022-12-08T05:34:02;8.93;;;4.40;;
53545;SDS011;39432;51.902;10.844;2022-12-08T05:36:32;5.75;;;3.40;;
53545;SDS011;39432;51.902;10.844;2022-12-08T05:39:04;6.55;;;3.53;;
53545;SDS011;39432;51.902;10.844;2022-12-08T05:41:34;7.22;;;3.92;;
53545;SDS011;39432;51.902;10.844;2022-12-08T05:44:04;8.70;;;3.40;;
53545;SDS011;39432;51.902;10.844;2022-12-08T05:46:34;5.55;;;2.63;;
53545;SDS011;39432;51.902;10.844;2022-12-08T05:49:12;5.47;;;2.72;;
53545;SDS011;39432;51.902;10.844;2022-12-08T05:51:42;4.05;;;2.30;;
53545;SDS011;39432;51.902;10.844;2022-12-08T05:54:14;5.40;;;2.88;;
53545;SDS011;39432;51.902;10.844;2022-12-08T05:56:44;3.75;;;2.10;;
53545;SDS011;39432;51.902;10.844;2022-12-08T05:59:14;4.20;;;2.50;;
53545;SDS011;39432;51.902;10.844;2022-12-08T06:01:44;5.22;;;3.03;;
53545;SDS011;39432;51.902;10.844;2022-12-08T06:04:14;5.40;;;2.50;;
53545;SDS011;39432;51.902;10.844;2022-12-08T06:06:44;5.15;;;2.72;;
53545;SDS011;39432;51.902;10.844;2022-12-08T06:09:16;4.78;;;2.72;;
53545;SDS011;39432;51.902;10.844;2022-12-08T06:11:46;5.78;;;2.35;;
53545;SDS011;39432;51.902;10.844;2022-12-08T06:14:16;6.90;;;2.90;;
53545;SDS011;39432;51.902;10.844;2022-12-08T06:16:46;5.78;;;2.65;;
53545;SDS011;39432;51.902;10.844;2022-12-08T06:19:16;3.65;;;2.10;;
53545;SDS011;39432;51.902;10.844;2022-12-08T06:21:45;5.07;;;2.20;;
53545;SDS011;39432;51.902;10.844;2022-12-08T06:24:18;6.47;;;1.98;;
53545;SDS011;39432;51.902;10.844;2022-12-08T06:26:47;4.07;;;2.30;;
53545;SDS011;39432;51.902;10.844;2022-12-08T06:29:17;5.25;;;2.22;;
53545;SDS011;39432;51.902;10.844;2022-12-08T06:31:47;4.65;;;2.20;;
53545;SDS011;39432;51.902;10.844;2022-12-08T06:34:18;5.72;;;2.50;;
53545;SDS011;39432;51.902;10.844;2022-12-08T06:36:47;4.57;;;2.58;;
53545;SDS011;39432;51.902;10.844;2022-12-08T06:39:20;4.38;;;2.67;;
53545;SDS011;39432;51.902;10.844;2022-12-08T06:41:49;7.00;;;3.60;;
53545;SDS011;39432;51.902;10.844;2022-12-08T06:44:31;5.45;;;3.00;;
53545;SDS011;39432;51.902;10.844;2022-12-08T06:47:01;8.90;;;4.00;;
53545;SDS011;39432;51.902;10.844;2022-12-08T06:49:31;9.95;;;4.75;;
53545;SDS011;39432;51.902;10.844;2022-12-08T06:52:01;8.45;;;5.22;;
53545;SDS011;39432;51.902;10.844;2022-12-08T06:54:34;8.68;;;3.80;;
53545;SDS011;39432;51.902;10.844;2022-12-08T06:57:03;6.53;;;2.97;;
53545;SDS011;39432;51.902;10.844;2022-12-08T06:59:33;5.30;;;3.00;;
53545;SDS011;39432;51.902;10.844;2022-12-08T07:02:03;8.18;;;3.78;;
53545;SDS011;39432;51.902;10.844;2022-12-08T07:04:32;5.38;;;3.40;;
53545;SDS011;39432;51.902;10.844;2022-12-08T07:07:02;6.15;;;3.55;;
53545;SDS011;39432;51.902;10.844;2022-12-08T07:09:35;7.35;;;3.35;;
53545;SDS011;39432;51.902;10.844;2022-12-08T07:12:05;6.65;;;3.60;;
53545;SDS011;39432;51.902;10.844;2022-12-08T07:14:35;5.32;;;3.60;;
53545;SDS011;39432;51.902;10.844;2022-12-08T07:17:05;6.70;;;4.50;;
53545;SDS011;39432;51.902;10.844;2022-12-08T07:19:34;5.55;;;3.78;;
53545;SDS011;39432;51.902;10.844;2022-12-08T07:22:04;7.05;;;4.40;;
53545;SDS011;39432;51.902;10.844;2022-12-08T07:24:36;8.77;;;4.70;;
53545;SDS011;39432;51.902;10.844;2022-12-08T07:27:06;8.32;;;4.80;;
53545;SDS011;39432;51.902;10.844;2022-12-08T07:29:36;8.77;;;5.28;;
53545;SDS011;39432;51.902;10.844;2022-12-08T07:32:06;6.13;;;4.00;;
53545;SDS011;39432;51.902;10.844;2022-12-08T07:34:36;6.18;;;3.90;;
53545;SDS011;39432;51.902;10.844;2022-12-08T07:37:06;6.45;;;3.92;;
53545;SDS011;39432;51.902;10.844;2022-12-08T07:39:38;5.90;;;3.92;;
53545;SDS011;39432;51.902;10.844;2022-12-08T07:42:08;6.45;;;3.92;;
53545;SDS011;39432;51.902;10.844;2022-12-08T07:44:38;5.65;;;3.70;;
53545;SDS011;39432;51.902;10.844;2022-12-08T07:47:08;6.13;;;3.30;;
53545;SDS011;39432;51.902;10.844;2022-12-08T07:49:37;5.03;;;2.70;;
53545;SDS011;39432;51.902;10.844;2022-12-08T07:52:07;4.05;;;2.38;;
53545;SDS011;39432;51.902;10.844;2022-12-08T07:54:39;4.05;;;2.50;;
53545;SDS011;39432;51.902;10.844;2022-12-08T07:57:10;3.90;;;2.58;;
53545;SDS011;39432;51.902;10.844;2022-12-08T07:59:40;5.53;;;2.33;;
53545;SDS011;39432;51.902;10.844;2022-12-08T08:02:12;3.67;;;2.00;;
53545;SDS011;39432;51.902;10.844;2022-12-08T08:04:51;5.78;;;2.53;;
53545;SDS011;39432;51.902;10.844;2022-12-08T08:07:21;4.40;;;2.60;;
53545;SDS011;39432;51.902;10.844;2022-12-08T08:09:53;5.05;;;2.60;;
53545;SDS011;39432;51.902;10.844;2022-12-08T08:12:23;4.93;;;2.50;;
53545;SDS011;39432;51.902;10.844;2022-12-08T08:14:58;4.82;;;2.53;;
53545;SDS011;39432;51.902;10.844;2022-12-08T08:17:28;6.40;;;2.72;;
53545;SDS011;39432;51.902;10.844;2022-12-08T08:19:58;6.55;;;2.58;;
53545;SDS011;39432;51.902;10.844;2022-12-08T08:22:29;5.25;;;2.60;;
53545;SDS011;39432;51.902;10.844;2022-12-08T08:25:01;3.88;;;2.45;;
53545;SDS011;39432;51.902;10.844;2022-12-08T08:27:32;5.32;;;2.70;;
53545;SDS011;39432;51.902;10.844;2022-12-08T08:30:02;3.83;;;2.20;;
53545;SDS011;39432;51.902;10.844;2022-12-08T08:32:33;4.57;;;2.47;;
53545;SDS011;39432;51.902;10.844;2022-12-08T08:35:03;4.50;;;2.80;;
53545;SDS011;39432;51.902;10.844;2022-12-08T08:37:34;4.95;;;2.45;;
53545;SDS011;39432;51.902;10.844;2022-12-08T08:40:07;4.88;;;2.90;;
53545;SDS011;39432;51.902;10.844;2022-12-08T08:42:37;5.03;;;2.83;;
53545;SDS011;39432;51.902;10.844;2022-12-08T08:45:07;6.35;;;2.45;;
53545;SDS011;39432;51.902;10.844;2022-12-08T08:47:37;3.83;;;1.95;;
53545;SDS011;39432;51.902;10.844;2022-12-08T08:50:07;5.68;;;2.95;;
53545;SDS011;39432;51.902;10.844;2022-12-08T08:52:37;4.72;;;3.08;;
53545;SDS011;39432;51.902;10.844;2022-12-08T08:55:10;3.40;;;2.00;;
53545;SDS011;39432;51.902;10.844;2022-12-08T08:57:39;3.55;;;2.17;;
53545;SDS011;39432;51.902;10.844;2022-12-08T09:00:10;4.55;;;1.95;;
53545;SDS011;39432;51.902;10.844;2022-12-08T09:02:40;2.38;;;1.45;;
53545;SDS011;39432;51.902;10.844;2022-12-08T09:05:10;2.22;;;1.50;;
53545;SDS011;39432;51.902;10.844;2022-12-08T09:07:40;2.35;;;1.40;;
53545;SDS011;39432;51.902;10.844;2022-12-08T09:10:13;3.40;;;1.40;;
53545;SDS011;39432;51.902;10.844;2022-12-08T09:12:44;2.00;;;1.08;;
53545;SDS011;39432;51.902;10.844;2022-12-08T09:15:14;1.73;;;0.90;;
53545;SDS011;39432;51.902;10.844;2022-12-08T09:17:46;3.42;;;1.10;;
53545;SDS011;39432;51.902;10.844;2022-12-08T09:20:15;2.05;;;0.90;;
53545;SDS011;39432;51.902;10.844;2022-12-08T09:22:45;2.78;;;1.00;;
53545;SDS011;39432;51.902;10.844;2022-12-08T09:25:17;2.08;;;1.00;;
53545;SDS011;39432;51.902;10.844;2022-12-08T09:27:47;2.05;;;1.30;;
53545;SDS011;39432;51.902;10.844;2022-12-08T09:30:17;2.00;;;1.13;;
53545;SDS011;39432;51.902;10.844;2022-12-08T09:32:47;2.47;;;1.33;;
53545;SDS011;39432;51.902;10.844;2022-12-08T09:35:16;3.35;;;1.45;;
53545;SDS011;39432;51.902;10.844;2022-12-08T09:37:46;2.35;;;1.45;;
53545;SDS011;39432;51.902;10.844;2022-12-08T09:40:19;2.90;;;1.42;;
53545;SDS011;39432;51.902;10.844;2022-12-08T09:42:51;3.28;;;1.65;;
53545;SDS011;39432;51.902;10.844;2022-12-08T09:45:24;4.97;;;1.75;;
53545;SDS011;39432;51.902;10.844;2022-12-08T09:47:58;6.50;;;2.00;;
53545;SDS011;39432;51.902;10.844;2022-12-08T09:50:34;10.05;;;5.65;;
53545;SDS011;39432;51.902;10.844;2022-12-08T09:53:09;10.43;;;5.43;;
53545;SDS011;39432;51.902;10.844;2022-12-08T09:55:46;4.35;;;3.00;;
53545;SDS011;39432;51.902;10.844;2022-12-08T09:58:20;3.28;;;2.60;;
53545;SDS011;39432;51.902;10.844;2022-12-08T10:00:55;4.20;;;2.20;;
53545;SDS011;39432;51.902;10.844;2022-12-08T10:03:26;2.50;;;1.67;;
53545;SDS011;39432;51.902;10.844;2022-12-08T10:06:00;2.40;;;1.20;;
53545;SDS011;39432;51.902;10.844;2022-12-08T10:08:38;4.82;;;1.90;;
53545;SDS011;39432;51.902;10.844;2022-12-08T10:11:18;5.40;;;1.77;;
53545;SDS011;39432;51.902;10.844;2022-12-08T10:13:57;3.15;;;1.70;;
53545;SDS011;39432;51.902;10.844;2022-12-08T10:16:32;2.65;;;1.45;;
53545;SDS011;39432;51.902;10.844;2022-12-08T10:19:09;3.13;;;1.40;;
53545;SDS011;39432;51.902;10.844;2022-12-08T10:21:42;1.83;;;1.05;;
53545;SDS011;39432;51.902;10.844;2022-12-08T10:24:15;4.05;;;2.13;;
53545;SDS011;39432;51.902;10.844;2022-12-08T10:26:53;2.50;;;1.40;;
53545;SDS011;39432;51.902;10.844;2022-12-08T10:29:24;5.00;;;2.35;;
53545;SDS011;39432;51.902;10.844;2022-12-08T10:31:55;2.42;;;1.40;;
53545;SDS011;39432;51.902;10.844;2022-12-08T10:34:27;2.30;;;1.40;;
53545;SDS011;39432;51.902;10.844;2022-12-08T10:36:57;2.20;;;1.30;;
53545;SDS011;39432;51.902;10.844;2022-12-08T10:39:28;1.80;;;1.27;;
53545;SDS011;39432;51.902;10.844;2022-12-08T10:42:03;3.45;;;1.60;;
53545;SDS011;39432;51.902;10.844;2022-12-08T10:44:46;3.35;;;1.65;;
53545;SDS011;39432;51.902;10.844;2022-12-08T10:47:23;2.97;;;1.60;;
53545;SDS011;39432;51.902;10.844;2022-12-08T10:50:09;3.03;;;1.23;;
53545;SDS011;39432;51.902;10.844;2022-12-08T10:52:52;2.45;;;1.35;;
53545;SDS011;39432;51.902;10.844;2022-12-08T10:55:24;4.72;;;1.70;;
53545;SDS011;39432;51.902;10.844;2022-12-08T10:57:59;2.67;;;1.45;;
53545;SDS011;39432;51.902;10.844;2022-12-08T11:00:29;2.00;;;1.02;;
53545;SDS011;39432;51.902;10.844;2022-12-08T11:02:59;3.15;;;1.25;;
53545;SDS011;39432;51.902;10.844;2022-12-08T11:05:31;1.40;;;0.80;;
53545;SDS011;39432;51.902;10.844;2022-12-08T11:08:02;1.83;;;1.20;;
53545;SDS011;39432;51.902;10.844;2022-12-08T11:10:34;1.58;;;0.95;;
53545;SDS011;39432;51.902;10.844;2022-12-08T11:13:12;1.67;;;0.80;;
53545;SDS011;39432;51.902;10.844;2022-12-08T11:15:47;2.10;;;0.90;;
53545;SDS011;39432;51.902;10.844;2022-12-08T11:18:27;2.40;;;1.10;;
53545;SDS011;39432;51.902;10.844;2022-12-08T11:20:59;1.50;;;1.00;;
53545;SDS011;39432;51.902;10.844;2022-12-08T11:23:34;1.80;;;1.05;;
53545;SDS011;39432;51.902;10.844;2022-12-08T11:26:06;1.83;;;0.98;;
53545;SDS011;39432;51.902;10.844;2022-12-08T11:28:46;1.58;;;0.95;;
53545;SDS011;39432;51.902;10.844;2022-12-08T11:31:24;2.70;;;0.63;;
53545;SDS011;39432;51.902;10.844;2022-12-08T11:33:57;1.40;;;0.70;;
53545;SDS011;39432;51.902;10.844;2022-12-08T11:36:27;1.75;;;0.80;;
53545;SDS011;39432;51.902;10.844;2022-12-08T11:39:02;1.02;;;0.60;;
53545;SDS011;39432;51.902;10.844;2022-12-08T11:41:36;1.00;;;0.68;;
53545;SDS011;39432;51.902;10.844;2022-12-08T11:44:16;2.22;;;1.10;;
53545;SDS011;39432;51.902;10.844;2022-12-08T11:46:55;1.42;;;0.77;;
53545;SDS011;39432;51.902;10.844;2022-12-08T11:49:31;1.13;;;0.63;;
53545;SDS011;39432;51.902;10.844;2022-12-08T11:54:41;1.40;;;0.60;;
53545;SDS011;39432;51.902;10.844;2022-12-08T11:57:16;1.17;;;0.70;;
53545;SDS011;39432;51.902;10.844;2022-12-08T11:59:50;0.93;;;0.45;;
53545;SDS011;39432;51.902;10.844;2022-12-08T12:02:23;1.48;;;0.77;;
53545;SDS011;39432;51.902;10.844;2022-12-08T12:04:56;1.23;;;0.60;;
53545;SDS011;39432;51.902;10.844;2022-12-08T12:07:34;1.33;;;0.60;;
53545;SDS011;39432;51.902;10.844;2022-12-08T12:13:11;0.98;;;0.50;;
53545;SDS011;39432;51.902;10.844;2022-12-08T12:18:56;0.82;;;0.40;;
53545;SDS011;39432;51.902;10.844;2022-12-08T12:21:30;1.08;;;0.28;;
53545;SDS011;39432;51.902;10.844;2022-12-08T12:24:04;0.20;;;0.10;;
53545;SDS011;39432;51.902;10.844;2022-12-08T12:26:38;0.85;;;0.40;;
53545;SDS011;39432;51.902;10.844;2022-12-08T12:29:22;7.10;;;2.85;;
53545;SDS011;39432;51.902;10.844;2022-12-08T12:31:55;2.05;;;0.63;;
53545;SDS011;39432;51.902;10.844;2022-12-08T12:34:33;2.45;;;0.70;;
53545;SDS011;39432;51.902;10.844;2022-12-08T12:37:06;0.32;;;0.20;;
53545;SDS011;39432;51.902;10.844;2022-12-08T12:39:45;0.38;;;0.30;;
53545;SDS011;39432;51.902;10.844;2022-12-08T12:42:33;0.52;;;0.20;;
53545;SDS011;39432;51.902;10.844;2022-12-08T12:51:00;1.05;;;0.40;;
53545;SDS011;39432;51.902;10.844;2022-12-08T12:56:55;1.17;;;0.70;;
53545;SDS011;39432;51.902;10.844;2022-12-08T12:59:44;1.27;;;0.50;;
53545;SDS011;39432;51.902;10.844;2022-12-08T13:02:31;0.60;;;0.40;;
53545;SDS011;39432;51.902;10.844;2022-12-08T13:05:06;0.90;;;0.50;;
53545;SDS011;39432;51.902;10.844;2022-12-08T13:07:40;0.30;;;0.22;;
53545;SDS011;39432;51.902;10.844;2022-12-08T13:10:18;1.63;;;0.40;;
53545;SDS011;39432;51.902;10.844;2022-12-08T13:13:04;0.77;;;0.50;;
53545;SDS011;39432;51.902;10.844;2022-12-08T13:15:47;1.08;;;0.60;;
53545;SDS011;39432;51.902;10.844;2022-12-08T13:18:19;0.60;;;0.40;;
53545;SDS011;39432;51.902;10.844;2022-12-08T13:20:52;1.52;;;1.00;;
53545;SDS011;39432;51.902;10.844;2022-12-08T13:23:40;2.28;;;0.70;;
53545;SDS011;39432;51.902;10.844;2022-12-08T13:26:16;1.30;;;0.90;;
53545;SDS011;39432;51.902;10.844;2022-12-08T13:31:43;1.75;;;1.00;;
53545;SDS011;39432;51.902;10.844;2022-12-08T13:34:26;2.85;;;1.33;;
53545;SDS011;39432;51.902;10.844;2022-12-08T13:37:16;1.70;;;1.23;;
53545;SDS011;39432;51.902;10.844;2022-12-08T13:39:52;8.32;;;2.30;;
53545;SDS011;39432;51.902;10.844;2022-12-08T13:42:32;5.43;;;2.00;;
53545;SDS011;39432;51.902;10.844;2022-12-08T13:45:12;2.58;;;1.40;;
53545;SDS011;39432;51.902;10.844;2022-12-08T13:48:09;2.45;;;1.35;;
53545;SDS011;39432;51.902;10.844;2022-12-08T13:51:05;2.92;;;1.45;;
53545;SDS011;39432;51.902;10.844;2022-12-08T13:54:00;2.05;;;1.20;;
53545;SDS011;39432;51.902;10.844;2022-12-08T13:56:55;2.90;;;0.90;;
53545;SDS011;39432;51.902;10.844;2022-12-08T13:59:41;1.83;;;1.02;;
53545;SDS011;39432;51.902;10.844;2022-12-08T14:02:14;1.85;;;1.20;;
53545;SDS011;39432;51.902;10.844;2022-12-08T14:04:47;2.67;;;1.30;;
53545;SDS011;39432;51.902;10.844;2022-12-08T14:07:37;1.67;;;1.10;;
53545;SDS011;39432;51.902;10.844;2022-12-08T14:10:09;2.00;;;1.10;;
53545;SDS011;39432;51.902;10.844;2022-12-08T14:12:45;6.93;;;1.60;;
53545;SDS011;39432;51.902;10.844;2022-12-08T14:15:22;4.07;;;2.67;;
53545;SDS011;39432;51.902;10.844;2022-12-08T14:18:04;2.65;;;1.75;;
53545;SDS011;39432;51.902;10.844;2022-12-08T14:20:34;2.03;;;1.33;;
53545;SDS011;39432;51.902;10.844;2022-12-08T14:23:24;1.73;;;1.20;;
53545;SDS011;39432;51.902;10.844;2022-12-08T14:25:54;2.60;;;1.70;;
53545;SDS011;39432;51.902;10.844;2022-12-08T14:28:24;3.08;;;1.50;;
53545;SDS011;39432;51.902;10.844;2022-12-08T14:30:57;2.40;;;1.20;;
53545;SDS011;39432;51.902;10.844;2022-12-08T14:33:27;2.28;;;1.23;;
53545;SDS011;39432;51.902;10.844;2022-12-08T14:35:59;3.85;;;2.20;;
53545;SDS011;39432;51.902;10.844;2022-12-08T14:38:29;4.40;;;2.20;;
53545;SDS011;39432;51.902;10.844;2022-12-08T14:41:01;3.42;;;1.70;;
53545;SDS011;39432;51.902;10.844;2022-12-08T14:43:32;2.67;;;1.55;;
53545;SDS011;39432;51.902;10.844;2022-12-08T14:46:17;2.58;;;1.50;;
53545;SDS011;39432;51.902;10.844;2022-12-08T14:51:20;2.13;;;1.40;;
53545;SDS011;39432;51.902;10.844;2022-12-08T14:53:55;2.45;;;1.50;;
53545;SDS011;39432;51.902;10.844;2022-12-08T14:56:30;3.08;;;1.50;;
53545;SDS011;39432;51.902;10.844;2022-12-08T14:59:05;3.72;;;1.45;;
53545;SDS011;39432;51.902;10.844;2022-12-08T15:01:43;1.95;;;1.30;;
53545;SDS011;39432;51.902;10.844;2022-12-08T15:04:17;1.15;;;0.63;;
53545;SDS011;39432;51.902;10.844;2022-12-08T15:06:49;2.42;;;0.60;;
53545;SDS011;39432;51.902;10.844;2022-12-08T15:09:28;1.42;;;0.70;;
53545;SDS011;39432;51.902;10.844;2022-12-08T15:12:01;3.20;;;0.70;;
53545;SDS011;39432;51.902;10.844;2022-12-08T15:14:32;3.78;;;1.98;;
53545;SDS011;39432;51.902;10.844;2022-12-08T15:20:03;4.63;;;2.50;;
53545;SDS011;39432;51.902;10.844;2022-12-08T15:23:00;5.38;;;2.30;;
53545;SDS011;39432;51.902;10.844;2022-12-08T15:25:30;5.88;;;3.17;;
53545;SDS011;39432;51.902;10.844;2022-12-08T15:28:01;9.93;;;5.18;;
53545;SDS011;39432;51.902;10.844;2022-12-08T15:30:31;4.80;;;3.30;;
53545;SDS011;39432;51.902;10.844;2022-12-08T15:33:03;4.43;;;2.60;;
53545;SDS011;39432;51.902;10.844;2022-12-08T15:35:33;8.07;;;4.47;;
53545;SDS011;39432;51.902;10.844;2022-12-08T15:38:08;13.23;;;5.93;;
53545;SDS011;39432;51.902;10.844;2022-12-08T15:40:47;8.52;;;4.75;;
53545;SDS011;39432;51.902;10.844;2022-12-08T15:43:17;7.93;;;4.00;;